Main page
METAR-TAF:

METAR-TAF

Airports :

Oil platform

Ekofisk, Norway

latitude: 56-33N, longitude: 003-15E, elevation: 3 m

Current weather observation

The report was made 13 minutes ago, at 05:50 UTC
Wind 16 kt from the South/Southwest
Temperature 13°C
Humidity 100%
Pressure 1008 hPa
Visibility: 0200 m
fog

METAR: ENLE 190550Z 20016KT 0200 FG VV005 13/13 Q1008 W13/S4

Time: 08:03 (06:03 UTC)

Forecast

The report was made 1 hour and 3 minutes ago, at 05:00 UTC
Forecast valid from 19 at 06 UTC to 19 at 15 UTC
Wind 18 kt from the South/Southwest
Visibility: 0200 m
at a height of 300 ft
fog
Probability 40%
from 19 at 06 UTC to 19 at 15 UTC
Visibility: 4000 m
Broken clouds at a height of 800 ft
mist

TAF: ENLE 190500Z 1906/1915 21018KT 0200 FG VV003 PROB40 1906/1915 4000 BR BKN008

Weather observations and forecasts of more than 4000 airports (METAR and TAF reports).

The available stations are represented by yellow and red dots on the map.

Hover mouse over dot to see the name of the station.

Then click to see weather observations and forecasts.

To change the map : click on the green buttons with a black cross to zoom in, on the green button with a dash to zoom out, or on the green arrows for adjacent maps.


METAR-TAF: